Time;durP1;ratioP1;P1;durP2;ratioP2;P2;SDS_P1;SDS_P2;PMS_P1;PMS_P2;Temp;Humidity;BMP_temperature;BMP_pressure;BME280_temperature;BME280_humidity;BME280_pressure;Samples;Min_cycle;Max_cycle;Signal;HPM_P1;HPM_P2
2021/06/01 00:02:24;;;;;;;17.15;13.77;;;;;;;21.64;45.79;94125.97;5013217;28;100180;-63
2021/06/01 00:04:50;;;;;;;13.98;11.15;;;;;;;21.67;45.56;94133.38;5014212;28;97289;-62
2021/06/01 00:07:15;;;;;;;12.38;9.88;;;;;;;21.66;45.40;94127.13;5013995;28;96931;-63
2021/06/01 00:09:41;;;;;;;10.43;9.00;;;;;;;21.69;45.53;94131.78;5013985;28;99948;-62
2021/06/01 00:12:06;;;;;;;9.90;8.40;;;;;;;21.71;45.49;94125.84;5013317;28;99183;-63
2021/06/01 00:14:32;;;;;;;12.63;9.10;;;;;;;21.73;45.48;94120.72;5013651;28;96716;-61
2021/06/01 00:16:57;;;;;;;13.65;9.88;;;;;;;21.71;45.51;94123.09;5013902;28;96880;-64
2021/06/01 00:19:23;;;;;;;12.32;10.20;;;;;;;21.66;45.56;94110.63;5013428;28;99595;-64
2021/06/01 00:21:48;;;;;;;12.75;10.75;;;;;;;21.66;45.70;94123.59;5013117;28;99133;-60
2021/06/01 00:24:14;;;;;;;15.20;11.80;;;;;;;21.63;45.56;94108.72;5013216;28;98490;-62
2021/06/01 00:26:40;;;;;;;11.43;10.20;;;;;;;21.67;45.48;94105.91;5013565;28;98431;-60
2021/06/01 00:29:05;;;;;;;10.52;9.38;;;;;;;21.64;45.43;94102.03;5015669;28;99757;-62
2021/06/01 00:31:31;;;;;;;10.13;9.10;;;;;;;21.66;45.46;94104.34;5017121;28;99165;-62
2021/06/01 00:33:57;;;;;;;9.10;7.82;;;;;;;21.69;45.35;94096.06;5017460;28;96637;-65
2021/06/01 00:36:22;;;;;;;9.23;7.88;;;;;;;21.67;45.36;94105.91;5017434;28;96888;-62
2021/06/01 00:38:48;;;;;;;8.73;7.47;;;;;;;21.68;45.24;94102.75;5016460;28;98964;-61
2021/06/01 00:41:14;;;;;;;9.85;8.20;;;;;;;21.67;45.45;94094.91;5024139;28;99475;-62
2021/06/01 00:43:39;;;;;;;10.35;8.75;;;;;;;21.67;45.34;94094.91;5036356;28;96833;-61
2021/06/01 00:46:05;;;;;;;11.90;9.70;;;;;;;21.66;45.31;94093.34;5037015;28;96910;-62
2021/06/01 00:48:30;;;;;;;11.88;9.90;;;;;;;21.67;45.39;94092.16;5036668;28;99535;-59
2021/06/01 00:50:55;;;;;;;13.43;10.65;;;;;;;21.65;45.16;94092.59;5036889;28;99782;-63
2021/06/01 00:53:21;;;;;;;13.55;10.50;;;;;;;21.64;45.35;94087.50;5036926;28;96648;-61
2021/06/01 00:55:47;;;;;;;13.73;12.00;;;;;;;21.65;45.37;94087.09;5037113;28;97394;-60
2021/06/01 00:58:12;;;;;;;14.13;11.55;;;;;;;21.62;45.40;94088.69;5036475;28;99015;-62
2021/06/01 01:03:12;;;;;;;13.82;10.95;;;;;;;21.60;45.63;94096.56;5036086;28;96638;-61
2021/06/01 01:05:39;;;;;;;13.90;11.43;;;;;;;21.65;45.42;94097.28;5036711;28;96892;-62
2021/06/01 01:11:15;;;;;;;13.55;11.20;;;;;;;21.63;45.42;94103.22;5002485;28;97700;-63
2021/06/01 01:13:44;;;;;;;13.80;11.15;;;;;;;21.62;45.32;94109.91;5018046;28;96937;-61
2021/06/01 01:16:10;;;;;;;13.82;11.02;;;;;;;21.62;45.30;94109.91;5018622;28;97044;-61
2021/06/01 01:18:35;;;;;;;12.82;10.73;;;;;;;21.60;45.27;94102.03;5001442;28;99518;-64
2021/06/01 01:21:15;;;;;;;15.23;11.95;;;;;;;21.62;45.50;94094.19;5018516;28;97796;-62
2021/06/01 01:23:43;;;;;;;13.75;11.07;;;;;;;21.65;45.39;94097.28;5018634;28;97727;-61
2021/06/01 01:26:08;;;;;;;12.65;9.85;;;;;;;21.64;45.26;94098.50;5002264;28;97341;-59
2021/06/01 01:28:55;;;;;;;10.38;8.98;;;;;;;21.61;45.42;94103.59;5035500;28;98000;-61
2021/06/01 01:31:25;;;;;;;8.55;7.70;;;;;;;21.59;45.35;94097.75;5035967;28;99118;-60
2021/06/01 01:33:50;;;;;;;8.82;7.93;;;;;;;21.60;45.41;94093.81;5002422;28;96805;-62
2021/06/01 01:36:16;;;;;;;9.48;7.82;;;;;;;21.59;45.42;94095.00;5001814;28;97025;-60
2021/06/01 01:38:41;;;;;;;9.38;8.15;;;;;;;21.59;45.40;94095.00;5001346;28;99478;-63
2021/06/01 01:41:12;;;;;;;10.93;8.57;;;;;;;21.58;45.30;94104.44;5017780;28;99099;-63
2021/06/01 01:43:39;;;;;;;12.68;9.60;;;;;;;21.57;45.50;94086.41;5004734;28;96721;-60
2021/06/01 01:46:14;;;;;;;11.15;9.25;;;;;;;21.57;45.47;94089.16;4998073;28;96936;-61
2021/06/01 01:49:00;;;;;;;11.25;9.45;;;;;;;21.58;45.44;94093.44;5013773;28;99612;-61
2021/06/01 01:51:31;;;;;;;11.63;9.20;;;;;;;21.56;45.65;94089.56;5023085;28;99154;-62
2021/06/01 01:53:58;;;;;;;12.25;10.13;;;;;;;21.55;45.68;94088.78;5022617;28;96709;-61
2021/06/01 01:56:37;;;;;;;13.07;11.25;;;;;;;21.55;45.73;94088.78;5024903;28;96924;-61
2021/06/01 01:59:03;;;;;;;14.50;11.95;;;;;;;21.54;45.66;94087.22;4997777;28;99556;-63
2021/06/01 02:01:32;;;;;;;14.90;12.25;;;;;;;21.56;45.81;94084.09;5007499;28;99183;-61
2021/06/01 02:03:58;;;;;;;14.82;11.63;;;;;;;21.54;45.81;94087.22;4992256;28;97566;-60
2021/06/01 02:06:23;;;;;;;13.75;11.77;;;;;;;21.59;45.64;94083.25;4997202;28;97109;-66
2021/06/01 02:08:49;;;;;;;12.02;10.23;;;;;;;21.61;45.72;94075.34;5015568;28;99277;-63
2021/06/01 02:11:14;;;;;;;12.02;9.73;;;;;;;21.57;45.73;94075.41;5015009;28;98881;-64
2021/06/01 02:13:44;;;;;;;10.90;8.18;;;;;;;21.63;45.82;94067.50;5015349;28;96803;-62
2021/06/01 02:16:09;;;;;;;7.88;7.07;;;;;;;21.66;45.62;94069.41;5015836;28;96899;-63
2021/06/01 02:18:35;;;;;;;8.95;7.55;;;;;;;21.70;46.03;94085.81;5014728;28;99439;-63
2021/06/01 02:21:01;;;;;;;5.70;5.20;;;;;;;21.61;45.11;94084.38;5014771;28;99578;-61
2021/06/01 02:23:50;;;;;;;4.63;4.22;;;;;;;21.25;43.50;94082.22;4981308;28;97014;-60
2021/06/01 02:26:29;;;;;;;5.40;4.45;;;;;;;20.98;42.60;94094.00;5015733;28;96790;-63
2021/06/01 02:28:58;;;;;;;5.25;4.47;;;;;;;20.79;42.69;94094.69;4999238;28;99679;-62
2021/06/01 02:31:29;;;;;;;5.43;4.93;;;;;;;20.63;43.03;94104.28;4997072;28;99342;-61
2021/06/01 02:33:55;;;;;;;4.60;4.20;;;;;;;20.39;42.22;94095.97;5015392;28;96688;-61
2021/06/01 02:36:20;;;;;;;4.60;4.03;;;;;;;20.41;41.85;94088.09;4981489;28;97095;-60
2021/06/01 02:38:45;;;;;;;5.63;4.10;;;;;;;20.48;41.85;94108.41;4980930;28;97919;-59
2021/06/01 02:41:11;;;;;;;3.83;3.50;;;;;;;20.34;41.96;94104.63;4996827;28;99199;-59
2021/06/01 02:43:37;;;;;;;4.20;3.80;;;;;;;20.25;42.01;94102.41;5015140;28;96607;-59
2021/06/01 02:46:02;;;;;;;5.30;3.88;;;;;;;20.25;41.62;94112.59;4997363;28;96928;-59
2021/06/01 02:48:27;;;;;;;4.28;3.33;;;;;;;20.14;41.86;94113.50;4979788;28;99358;-59
2021/06/01 02:50:57;;;;;;;4.03;3.40;;;;;;;20.10;41.87;94111.97;5014469;28;99568;-59
2021/06/01 02:53:23;;;;;;;4.95;3.30;;;;;;;19.98;42.41;94111.34;5015454;28;96715;-60
2021/06/01 02:55:48;;;;;;;3.25;2.95;;;;;;;19.91;42.20;94107.88;4980780;28;97282;-60
2021/06/01 02:58:14;;;;;;;4.97;3.80;;;;;;;19.83;42.55;94113.41;4996833;28;99635;-59
2021/06/01 03:00:40;;;;;;;3.50;3.20;;;;;;;19.89;42.70;94113.00;5014858;28;99228;-58
2021/06/01 03:03:06;;;;;;;4.22;3.63;;;;;;;19.84;42.90;94106.72;5014874;28;96636;-60
2021/06/01 03:05:32;;;;;;;3.80;3.50;;;;;;;19.79;43.24;94109.91;5015232;28;97213;-59
2021/06/01 03:08:20;;;;;;;3.75;3.45;;;;;;;19.78;43.10;94111.09;5014148;28;99838;-60
2021/06/01 03:10:45;;;;;;;4.10;3.80;;;;;;;19.69;43.23;94105.34;4998495;28;99782;-60
2021/06/01 03:13:11;;;;;;;3.88;3.28;;;;;;;19.67;43.31;94107.72;5014745;28;96868;-61
2021/06/01 03:15:36;;;;;;;6.38;5.82;;;;;;;19.64;43.66;94103.03;5014878;28;96913;-61
2021/06/01 03:18:01;;;;;;;4.05;3.67;;;;;;;19.62;43.51;94106.16;5013667;28;101165;-61
2021/06/01 03:20:27;;;;;;;3.90;3.60;;;;;;;19.62;43.56;94119.09;5014053;28;99414;-62
2021/06/01 03:22:52;;;;;;;4.07;3.45;;;;;;;19.60;43.90;94096.81;5014715;28;96750;-60
2021/06/01 03:25:18;;;;;;;4.50;4.10;;;;;;;19.64;44.08;94092.09;5014583;28;97904;-63
2021/06/01 03:27:43;;;;;;;4.25;3.20;;;;;;;19.75;44.13;94087.25;5014307;28;99519;-63
2021/06/01 03:30:10;;;;;;;4.28;3.50;;;;;;;19.83;44.55;94083.25;5013912;28;99132;-62
2021/06/01 03:32:35;;;;;;;3.65;3.35;;;;;;;19.96;44.22;94096.47;5014012;28;96769;-63
2021/06/01 03:35:00;;;;;;;3.83;3.47;;;;;;;20.04;44.52;94081.50;5014961;28;96886;-61
2021/06/01 03:37:26;;;;;;;4.95;4.55;;;;;;;20.16;44.60;94087.63;5014081;28;99279;-62
2021/06/01 03:39:52;;;;;;;4.20;3.90;;;;;;;20.23;45.14;94087.56;5014230;28;99040;-62
2021/06/01 03:42:17;;;;;;;5.18;4.30;;;;;;;20.31;44.93;94089.03;5014701;28;96707;-61
2021/06/01 03:44:43;;;;;;;5.22;4.72;;;;;;;20.38;45.19;94088.16;5014517;28;96990;-61
2021/06/01 03:47:08;;;;;;;7.45;5.63;;;;;;;20.46;45.57;94088.81;5013811;28;99684;-61
2021/06/01 03:49:34;;;;;;;6.32;5.20;;;;;;;20.50;45.00;94089.56;5013926;28;100742;-61
2021/06/01 03:52:00;;;;;;;5.90;4.95;;;;;;;20.56;45.68;94094.19;5014213;28;97078;-60
2021/06/01 03:54:26;;;;;;;7.38;5.40;;;;;;;20.59;45.56;94081.59;4996764;28;97013;-60
2021/06/01 03:56:51;;;;;;;6.10;5.50;;;;;;;20.63;46.06;94087.81;5013482;28;99618;-60
2021/06/01 03:59:17;;;;;;;7.20;6.20;;;;;;;20.67;45.54;94094.03;5013574;28;101632;-61
2021/06/01 04:01:42;;;;;;;9.13;7.70;;;;;;;20.73;45.70;94083.38;5014775;28;97065;-61
2021/06/01 04:04:08;;;;;;;9.57;8.23;;;;;;;20.76;45.65;94084.53;5017950;28;96749;-61
2021/06/01 04:06:34;;;;;;;10.73;8.18;;;;;;;20.81;45.39;94081.34;5017062;28;99542;-63
2021/06/01 04:09:00;;;;;;;8.65;7.75;;;;;;;20.87;45.74;94080.44;4999526;28;99631;-63
2021/06/01 04:11:25;;;;;;;11.15;8.23;;;;;;;20.84;45.63;94084.03;5018003;28;97172;-62
2021/06/01 04:13:51;;;;;;;10.95;8.50;;;;;;;20.84;46.12;94072.28;5017816;28;96900;-62
2021/06/01 04:16:16;;;;;;;9.43;7.70;;;;;;;20.87;46.00;94079.69;5017307;28;98096;-61
2021/06/01 04:18:41;;;;;;;7.97;6.50;;;;;;;20.86;46.25;94072.66;5017279;28;99219;-62
2021/06/01 04:21:07;;;;;;;9.73;8.60;;;;;;;20.83;46.14;94071.50;5017100;28;97200;-61
2021/06/01 04:23:32;;;;;;;10.13;8.35;;;;;;;20.82;46.82;94077.41;5017610;28;96940;-62
2021/06/01 04:25:58;;;;;;;9.13;7.70;;;;;;;20.83;48.39;94070.72;5017022;28;98352;-61
2021/06/01 04:28:23;;;;;;;10.13;7.65;;;;;;;20.83;49.11;94074.22;5016919;28;99486;-61
2021/06/01 04:30:49;;;;;;;13.32;7.95;;;;;;;20.92;48.65;94070.97;5016509;28;96853;-65
2021/06/01 04:33:14;;;;;;;10.02;7.47;;;;;;;20.93;49.24;94086.25;5017333;28;96787;-63
2021/06/01 04:35:40;;;;;;;13.48;6.70;;;;;;;20.87;46.69;94085.19;5016206;28;99933;-63
2021/06/01 04:38:05;;;;;;;15.25;12.48;;;;;;;20.70;44.53;94076.75;5016415;28;99438;-64
2021/06/01 04:40:31;;;;;;;18.92;12.73;;;;;;;20.58;46.77;94069.06;5016508;28;96832;-62
2021/06/01 04:42:56;;;;;;;17.08;12.82;;;;;;;20.73;46.82;94086.91;5017001;28;96934;-62
2021/06/01 04:45:22;;;;;;;17.48;12.18;;;;;;;20.80;47.88;94085.28;5015779;28;98718;-63
2021/06/01 04:47:47;;;;;;;15.65;10.48;;;;;;;20.82;47.29;94078.16;5016654;28;101171;-62
2021/06/01 04:50:13;;;;;;;15.70;11.45;;;;;;;20.85;48.33;94077.34;5016880;28;96725;-63
2021/06/01 04:52:39;;;;;;;15.10;13.35;;;;;;;20.86;49.30;94089.88;5016867;28;96914;-64
2021/06/01 04:55:05;;;;;;;15.40;10.85;;;;;;;20.87;48.02;94080.44;5015611;28;99905;-64
2021/06/01 04:57:30;;;;;;;16.27;13.43;;;;;;;20.91;47.85;94091.38;5013829;28;100174;-65
2021/06/01 04:59:55;;;;;;;18.67;15.15;;;;;;;20.96;48.93;94093.66;5014500;28;97636;-63
2021/06/01 05:02:21;;;;;;;21.92;17.77;;;;;;;21.02;48.52;94092.00;5015560;28;96945;-66
2021/06/01 05:04:46;;;;;;;23.83;20.10;;;;;;;21.07;48.42;94070.75;5014974;28;99260;-62
2021/06/01 05:07:12;;;;;;;21.88;17.80;;;;;;;21.08;48.36;94069.56;5014959;28;97829;-63
2021/06/01 05:09:38;;;;;;;20.58;16.50;;;;;;;21.09;48.51;94069.16;5015245;28;96729;-63
2021/06/01 05:12:04;;;;;;;20.92;16.02;;;;;;;21.08;48.59;94072.31;5016454;28;96771;-66
2021/06/01 05:14:30;;;;;;;19.52;17.42;;;;;;;21.12;48.56;94073.03;5019167;28;100133;-64
2021/06/01 05:16:55;;;;;;;24.80;19.25;;;;;;;21.15;48.39;94072.19;5015807;28;99322;-64
2021/06/01 05:19:20;;;;;;;25.63;20.98;;;;;;;21.11;48.45;94071.47;5016494;28;96763;-63
2021/06/01 05:21:46;;;;;;;23.02;18.77;;;;;;;21.13;48.18;94074.56;5016219;28;96901;-63
2021/06/01 05:24:11;;;;;;;18.60;15.75;;;;;;;21.15;48.17;94072.97;5015471;28;98417;-63
2021/06/01 05:26:38;;;;;;;19.15;15.18;;;;;;;21.13;48.87;94069.09;5015803;28;99402;-63
2021/06/01 05:29:03;;;;;;;16.33;13.48;;;;;;;21.14;48.61;94076.13;4997994;28;96753;-63
2021/06/01 05:33:57;;;;;;;15.32;13.10;;;;;;;21.17;47.82;94069.81;4997802;28;99087;-63
2021/06/01 05:36:24;;;;;;;15.13;12.80;;;;;;;21.18;48.09;94071.34;5015603;28;98898;-63
2021/06/01 05:38:49;;;;;;;19.85;15.45;;;;;;;21.17;47.81;94075.28;5015886;28;96718;-64
2021/06/01 05:41:15;;;;;;;17.63;13.88;;;;;;;21.18;47.63;94065.88;5015790;28;96919;-64
2021/06/01 05:43:40;;;;;;;20.95;17.17;;;;;;;21.18;47.62;94071.34;5015354;28;99382;-63
2021/06/01 05:46:06;;;;;;;16.30;14.20;;;;;;;21.21;47.58;94072.47;5015509;28;99405;-66
2021/06/01 05:48:31;;;;;;;21.58;17.85;;;;;;;21.21;47.60;94067.78;5016125;28;96683;-64
2021/06/01 05:50:57;;;;;;;17.70;14.52;;;;;;;21.17;47.55;94073.34;5016307;28;98005;-66
2021/06/01 05:53:24;;;;;;;18.60;16.45;;;;;;;21.17;47.61;94069.81;5015426;28;99335;-65
2021/06/01 05:55:49;;;;;;;21.75;16.60;;;;;;;21.20;47.46;94070.97;5015409;28;99462;-63
2021/06/01 05:58:15;;;;;;;22.48;19.15;;;;;;;21.15;47.47;94066.69;5015441;28;96613;-66
2021/06/01 06:00:41;;;;;;;20.90;17.58;;;;;;;21.17;47.34;94075.28;5015495;28;96893;-64
2021/06/01 06:03:06;;;;;;;19.83;15.75;;;;;;;21.19;47.37;94083.91;5015564;28;99343;-66
2021/06/01 06:05:32;;;;;;;18.63;15.23;;;;;;;21.15;47.31;94069.44;5015334;28;99426;-64
2021/06/01 06:08:06;;;;;;;18.52;15.52;;;;;;;21.17;47.25;94075.28;5015794;28;96764;-64
2021/06/01 06:10:32;;;;;;;17.02;14.30;;;;;;;21.15;47.25;94063.94;5015919;28;96897;-66
2021/06/01 06:12:57;;;;;;;22.67;18.42;;;;;;;21.21;47.31;94064.25;5014719;28;99731;-65
2021/06/01 06:15:23;;;;;;;18.33;16.00;;;;;;;21.20;47.25;94071.72;5015176;28;100741;-66
2021/06/01 06:17:53;;;;;;;18.42;15.85;;;;;;;21.19;47.13;94070.16;5015887;28;96587;-63
2021/06/01 06:20:18;;;;;;;18.85;15.15;;;;;;;21.16;47.21;94068.25;5015503;28;96908;-63
2021/06/01 06:22:44;;;;;;;15.20;13.27;;;;;;;21.18;47.37;94072.16;5015135;28;98478;-63
2021/06/01 06:25:10;;;;;;;19.20;14.50;;;;;;;21.19;47.31;94070.16;5013777;28;99373;-64
2021/06/01 06:27:37;;;;;;;18.45;14.30;;;;;;;21.19;47.23;94067.41;4996372;28;97308;-63
2021/06/01 06:30:07;;;;;;;19.63;16.45;;;;;;;21.21;47.07;94067.78;5015435;28;96935;-64
2021/06/01 06:32:32;;;;;;;22.88;18.52;;;;;;;21.21;46.96;94076.00;5014942;28;99852;-64
2021/06/01 06:34:58;;;;;;;20.95;18.65;;;;;;;21.24;47.51;94074.41;5033190;28;98957;-65
2021/06/01 06:37:23;;;;;;;22.23;18.60;;;;;;;21.24;47.11;94083.41;5035074;28;96801;-66
2021/06/01 06:39:49;;;;;;;18.10;15.43;;;;;;;21.19;47.16;94078.41;5035381;28;96958;-64
2021/06/01 06:42:17;;;;;;;19.17;16.30;;;;;;;21.20;47.20;94077.22;5034255;28;99536;-64
2021/06/01 06:44:44;;;;;;;17.58;13.68;;;;;;;21.20;47.25;94074.47;5034028;28;99369;-64
2021/06/01 06:49:35;;;;;;;17.40;13.60;;;;;;;21.20;46.93;94079.97;5017459;28;96937;-63
2021/06/01 06:52:01;;;;;;;25.38;19.02;;;;;;;21.21;47.23;94100.72;5034511;28;99528;-65
2021/06/01 06:54:27;;;;;;;19.35;16.92;;;;;;;21.25;47.04;94093.22;5034692;28;99457;-62
2021/06/01 06:56:52;;;;;;;19.20;15.05;;;;;;;21.29;47.17;94076.66;5016240;28;96776;-65
2021/06/01 06:59:18;;;;;;;26.38;21.95;;;;;;;21.30;46.89;94073.53;5031389;28;96947;-64
2021/06/01 07:01:43;;;;;;;20.55;18.05;;;;;;;21.30;46.76;94084.50;5014250;28;99587;-64
2021/06/01 07:04:09;;;;;;;21.60;19.33;;;;;;;21.28;46.82;94086.88;5015194;28;97888;-64
2021/06/01 07:06:34;;;;;;;28.10;22.17;;;;;;;21.35;46.82;94101.72;5014890;28;96631;-64
2021/06/01 07:09:00;;;;;;;23.67;20.58;;;;;;;21.40;47.24;94098.47;5015211;28;96850;-63
2021/06/01 07:11:25;;;;;;;22.92;20.52;;;;;;;21.39;46.90;94094.94;5013638;28;99907;-62
2021/06/01 07:14:01;;;;;;;30.08;26.98;;;;;;;21.44;46.54;94105.47;5012520;28;99110;-62
2021/06/01 07:16:27;;;;;;;27.30;23.45;;;;;;;21.46;46.67;94096.81;5012797;28;97072;-62
2021/06/01 07:18:52;;;;;;;25.90;23.08;;;;;;;21.46;46.45;94103.06;5012803;28;97701;-62
2021/06/01 07:21:18;;;;;;;26.15;23.40;;;;;;;21.47;46.58;94098.38;5012659;28;99164;-62
2021/06/01 07:23:43;;;;;;;23.77;21.30;;;;;;;21.45;46.67;94089.78;5012632;28;99466;-63
2021/06/01 07:26:10;;;;;;;25.02;20.52;;;;;;;21.49;46.52;94095.94;4993700;28;97929;-63
2021/06/01 07:28:35;;;;;;;24.40;21.85;;;;;;;21.51;46.60;94096.31;5013324;28;97409;-62
2021/06/01 07:31:04;;;;;;;22.95;20.45;;;;;;;21.52;46.56;94089.63;5013798;28;99470;-62
2021/06/01 07:33:30;;;;;;;24.40;21.80;;;;;;;21.52;46.57;94095.13;5013638;28;99867;-62
2021/06/01 07:35:55;;;;;;;23.27;20.63;;;;;;;21.52;46.63;94100.59;5014085;28;96760;-64
2021/06/01 07:38:21;;;;;;;22.90;19.95;;;;;;;21.55;46.72;94099.78;5014461;28;96874;-64
2021/06/01 07:40:46;;;;;;;19.90;16.80;;;;;;;21.58;47.00;94109.94;5013911;28;99132;-64
2021/06/01 07:43:11;;;;;;;16.52;14.45;;;;;;;21.60;46.99;94104.03;5013134;28;99442;-65
2021/06/01 07:45:37;;;;;;;15.05;13.15;;;;;;;21.64;47.15;94103.97;5014516;28;96640;-64
2021/06/01 07:48:03;;;;;;;14.70;13.10;;;;;;;21.64;47.39;94076.50;5014339;28;96834;-66
2021/06/01 07:50:29;;;;;;;16.58;13.52;;;;;;;21.55;47.29;94077.78;5013582;28;99614;-63
2021/06/01 07:52:54;;;;;;;17.27;14.77;;;;;;;21.54;47.47;94092.72;5014122;28;99534;-63
2021/06/01 07:55:19;;;;;;;16.70;14.68;;;;;;;21.61;47.55;94098.09;5014382;28;96769;-63
2021/06/01 07:57:45;;;;;;;16.05;13.45;;;;;;;21.61;47.66;94100.84;5014412;28;96930;-62
2021/06/01 08:00:11;;;;;;;19.95;17.83;;;;;;;21.62;47.29;94085.19;5012202;28;99502;-63
2021/06/01 08:02:36;;;;;;;21.38;18.92;;;;;;;21.62;47.44;94096.19;4993765;28;100347;-63
2021/06/01 08:05:03;;;;;;;28.38;25.05;;;;;;;21.64;47.64;94098.50;5013715;28;96808;-63
2021/06/01 08:07:29;;;;;;;27.48;24.67;;;;;;;21.64;47.45;94095.75;5013141;28;96938;-61
2021/06/01 08:09:54;;;;;;;22.88;20.48;;;;;;;21.65;47.47;94102.78;5012005;28;99219;-64
2021/06/01 08:12:19;;;;;;;23.27;20.88;;;;;;;21.64;47.39;94106.72;5011714;28;99193;-63
2021/06/01 08:14:45;;;;;;;22.25;20.00;;;;;;;21.62;47.48;94107.94;5013727;28;97025;-63
2021/06/01 08:17:11;;;;;;;23.23;20.75;;;;;;;21.61;47.32;94108.34;5013726;28;97027;-62
2021/06/01 08:19:40;;;;;;;22.52;20.15;;;;;;;21.61;47.54;94109.09;5013184;28;99704;-64
2021/06/01 08:24:34;;;;;;;22.63;20.35;;;;;;;21.62;47.68;94110.69;5013409;28;96939;-62
2021/06/01 08:27:03;;;;;;;21.98;19.10;;;;;;;21.61;47.46;94119.31;5013886;28;96860;-62
2021/06/01 08:29:28;;;;;;;20.00;17.90;;;;;;;21.62;47.78;94118.16;5013280;28;99098;-64
2021/06/01 08:31:54;;;;;;;19.88;17.75;;;;;;;21.61;47.44;94120.09;5013321;28;99301;-64
2021/06/01 08:34:19;;;;;;;20.30;18.10;;;;;;;21.59;47.43;94111.47;5014104;28;96512;-63
2021/06/01 08:36:44;;;;;;;19.98;17.42;;;;;;;21.64;48.41;94123.22;5013998;28;96933;-62
2021/06/01 08:39:12;;;;;;;19.35;17.25;;;;;;;21.64;48.33;94118.53;5013455;28;99397;-62
2021/06/01 08:41:38;;;;;;;20.42;18.33;;;;;;;21.64;48.54;94112.22;5012806;28;100253;-64
2021/06/01 08:44:05;;;;;;;18.20;16.30;;;;;;;21.59;48.23;94107.97;5013630;28;96775;-63
2021/06/01 08:46:31;;;;;;;18.88;16.88;;;;;;;21.62;47.70;94121.66;5013678;28;96896;-63
2021/06/01 08:48:56;;;;;;;18.92;16.98;;;;;;;21.62;47.85;94121.66;5013439;28;99367;-63
2021/06/01 08:51:22;;;;;;;18.80;16.23;;;;;;;21.62;47.75;94116.16;5016164;28;99251;-63
2021/06/01 08:53:49;;;;;;;17.23;15.38;;;;;;;21.60;47.64;94113.03;5017305;28;96708;-64
2021/06/01 08:56:15;;;;;;;17.35;15.45;;;;;;;21.64;47.89;94117.72;5016849;28;96945;-62
2021/06/01 08:58:41;;;;;;;16.77;15.02;;;;;;;21.65;48.21;94124.78;5016343;28;99582;-63
2021/06/01 09:01:07;;;;;;;15.98;14.25;;;;;;;21.66;47.85;94109.84;4998560;28;99372;-62
2021/06/01 09:03:32;;;;;;;16.20;14.48;;;;;;;21.64;47.17;94106.72;5016798;28;96870;-62
2021/06/01 09:06:26;;;;;;;14.75;13.23;;;;;;;21.67;47.30;94114.94;5016765;28;96734;-63
2021/06/01 09:23:03;;;;;;;13.98;11.98;;;;;;;21.65;47.35;94108.28;5013443;28;97304;-64
2021/06/01 09:25:48;;;;;;;13.50;12.10;;;;;;;21.67;47.30;94114.13;5016099;28;96881;-62
2021/06/01 09:28:14;;;;;;;12.95;11.55;;;;;;;21.69;47.05;94117.25;5016640;28;96773;-62
2021/06/01 09:30:43;;;;;;;12.85;11.27;;;;;;;21.67;47.19;94112.19;5015901;28;98891;-63
2021/06/01 09:33:25;;;;;;;12.90;11.43;;;;;;;21.68;46.95;94108.25;5016024;28;99687;-62
2021/06/01 09:35:57;;;;;;;12.20;10.90;;;;;;;21.69;47.10;94112.53;5016436;28;96692;-63
2021/06/01 09:38:30;;;;;;;12.75;10.85;;;;;;;21.66;47.19;94105.13;5016549;28;96686;-63
2021/06/01 09:41:28;;;;;;;12.27;10.38;;;;;;;21.67;46.87;94112.19;5015748;28;99839;-63
2021/06/01 09:43:58;;;;;;;11.13;9.93;;;;;;;21.67;47.19;94092.16;4960921;28;100094;-62
2021/06/01 09:46:27;;;;;;;12.63;10.63;;;;;;;21.68;47.74;94090.97;5016485;28;97239;-62
2021/06/01 09:48:53;;;;;;;12.63;10.18;;;;;;;21.67;46.98;94094.91;5016233;28;96974;-62
2021/06/01 09:51:24;;;;;;;11.77;10.57;;;;;;;21.67;47.11;94100.41;5015771;28;99322;-62
2021/06/01 09:53:53;;;;;;;10.80;9.70;;;;;;;21.69;46.64;94106.25;5015754;28;99370;-62
2021/06/01 09:56:18;;;;;;;10.82;9.73;;;;;;;21.70;46.75;94099.56;5016478;28;96620;-63
2021/06/01 09:58:43;;;;;;;10.98;9.55;;;;;;;21.67;46.73;94094.91;4998844;28;96818;-63
2021/06/01 10:01:09;;;;;;;10.73;9.52;;;;;;;21.69;47.19;94107.03;4997524;28;99921;-62
2021/06/01 10:03:43;;;;;;;9.95;8.75;;;;;;;21.69;46.93;94114.50;5015833;28;99387;-63
2021/06/01 10:06:08;;;;;;;10.93;9.65;;;;;;;21.67;47.23;94112.19;5015957;28;96819;-64
2021/06/01 10:08:46;;;;;;;10.43;8.57;;;;;;;21.66;47.01;94096.09;5016230;28;96868;-63
2021/06/01 10:11:12;;;;;;;10.13;8.45;;;;;;;21.70;46.78;94107.81;5015818;28;99590;-64
2021/06/01 10:13:38;;;;;;;9.60;8.27;;;;;;;21.70;46.84;94088.56;5015453;28;99750;-64
2021/06/01 10:16:11;;;;;;;8.90;8.02;;;;;;;21.70;46.75;94105.06;5016075;28;96749;-63
2021/06/01 10:18:39;;;;;;;9.80;8.27;;;;;;;21.70;46.82;94092.09;5016249;28;96820;-62
2021/06/01 10:21:06;;;;;;;8.55;7.75;;;;;;;21.72;46.86;94091.69;5015470;28;99431;-64
2021/06/01 10:23:39;;;;;;;8.95;8.05;;;;;;;21.73;46.70;94094.03;5015757;28;99582;-62
2021/06/01 10:26:06;;;;;;;8.65;7.78;;;;;;;21.74;46.67;94105.78;5015783;28;97231;-62
2021/06/01 10:28:37;;;;;;;9.13;7.18;;;;;;;21.74;46.49;94097.53;5015721;28;96915;-63
2021/06/01 10:31:05;;;;;;;8.30;7.45;;;;;;;21.74;46.70;94090.06;5014519;28;99236;-63
2021/06/01 10:33:54;;;;;;;9.10;7.90;;;;;;;21.75;46.41;94096.34;5015197;28;99365;-62
2021/06/01 10:53:07;;;;;;;8.55;6.97;;;;;;;21.67;47.16;94086.66;5014931;28;98737;-63
2021/06/01 10:55:58;;;;;;;8.75;6.93;;;;;;;21.72;46.73;94091.69;5014935;28;99345;-62
2021/06/01 10:58:49;;;;;;;6.82;6.13;;;;;;;21.71;46.65;94114.84;5015065;28;96808;-62
2021/06/01 11:04:25;;;;;;;6.93;6.15;;;;;;;21.69;46.52;94120.00;5015620;28;97130;-64
2021/06/01 11:07:09;;;;;;;6.28;5.68;;;;;;;21.69;46.64;94120.00;5014808;28;99339;-63
2021/06/01 11:09:34;;;;;;;6.85;6.07;;;;;;;21.68;47.05;94116.50;5015327;28;96772;-62
2021/06/01 11:12:24;;;;;;;6.45;5.85;;;;;;;21.68;46.96;94113.75;5014760;28;97546;-61
2021/06/01 11:14:57;;;;;;;6.28;5.72;;;;;;;21.67;46.62;94108.66;5014389;28;99694;-62
2021/06/01 11:17:38;;;;;;;6.50;5.80;;;;;;;21.69;46.85;94109.00;5015092;28;99946;-62
2021/06/01 11:33:28;;;;;;;6.57;5.80;;;;;;;21.68;46.91;94107.44;4997161;28;96773;-63
2021/06/01 11:35:58;;;;;;;6.25;5.20;;;;;;;21.68;47.13;94118.44;5014538;28;99656;-64
2021/06/01 11:38:29;;;;;;;6.22;5.63;;;;;;;21.69;46.84;94122.75;5014766;28;99151;-63
2021/06/01 11:43:34;;;;;;;6.65;5.82;;;;;;;21.71;47.44;94121.16;5012462;28;97163;-62
2021/06/01 11:51:22;;;;;;;5.95;5.40;;;;;;;21.71;46.90;94117.59;5014336;28;96610;-62
2021/06/01 11:53:48;;;;;;;5.97;5.38;;;;;;;21.71;46.89;94123.09;5002691;28;96765;-62
2021/06/01 11:56:17;;;;;;;5.57;5.07;;;;;;;21.72;46.53;94113.66;5014207;28;99564;-62
2021/06/01 12:18:33;;;;;;;5.53;4.97;;;;;;;21.74;46.57;94125.81;5010588;28;97233;-63
2021/06/01 12:20:58;;;;;;;4.88;4.47;;;;;;;21.76;46.41;94141.88;5013968;28;99478;-64
2021/06/01 12:23:28;;;;;;;5.30;4.80;;;;;;;21.72;46.41;94122.69;5014543;28;96807;-64
2021/06/01 12:26:12;;;;;;;4.90;4.50;;;;;;;21.75;46.57;94134.81;5017899;28;97457;-63
2021/06/01 12:31:57;;;;;;;5.00;4.50;;;;;;;21.73;47.05;94131.72;5017307;28;96879;-64
2021/06/01 12:34:28;;;;;;;4.85;4.43;;;;;;;21.75;46.93;94140.31;5017883;28;96609;-62
2021/06/01 12:45:04;;;;;;;5.18;4.07;;;;;;;21.72;46.84;94146.66;5014246;28;96601;-63
2021/06/01 13:05:18;;;;;;;4.75;4.35;;;;;;;21.73;46.88;94145.44;5017461;28;97427;-62
2021/06/01 13:09:53;;;;;;;4.53;4.13;;;;;;;21.67;47.38;94161.66;5015061;28;96757;-64
2021/06/01 13:13:01;;;;;;;4.70;4.30;;;;;;;21.66;47.12;94170.31;5001490;28;99228;-62
2021/06/01 13:21:08;;;;;;;4.30;3.90;;;;;;;21.65;47.07;94179.75;5016032;28;96653;-64
2021/06/01 13:32:16;;;;;;;4.15;3.80;;;;;;;21.67;47.25;94197.38;5013366;28;96826;-63
2021/06/01 13:46:07;;;;;;;4.30;3.90;;;;;;;21.70;47.61;94204.78;5013260;28;97103;-62
2021/06/01 13:56:18;;;;;;;4.00;3.70;;;;;;;21.73;47.07;94203.16;5016240;28;97400;-62
2021/06/01 14:09:55;;;;;;;3.33;3.03;;;;;;;21.70;47.32;94204.00;4997773;28;97018;-62
2021/06/01 14:36:43;;;;;;;2.88;2.67;;;;;;;21.65;46.83;94218.22;5013192;28;96600;-64